1.000 kWh

EHAM AMSTERDAM/SCHIPHOL NLD -3 m.
METAR EHAM 221355Z 29012KT 260V320 9999 FEW014 08/05 Q1008 NOSIG

EHAM AMSTERDAM/SCHIPHOL NLD -3 m.
TAF EHAM 221101Z 2212/2318 29012KT 9999 FEW020 BKN045
BECMG 2302/2305 20007KT
PROB30 2303/2309 6000
BECMG 2310/2313 20017KT 7000 RADZ BKN015
BECMG 2314/2317 4000 BR -DZ BKN006
PROB40 TEMPO 2316/2318 2000 DZ